Airfield :
LOGIN :

Register | Disclaimer

   EN    FR    IT 

 










Legend :    VFR   Marginal VFR   IFR   Intensive IFR   Very Intensive IFR
Visi :
Ceiling :
>= 8 km
>= 3000ft
5 to 8 km
1000 to 3000 ft
1500m to 5 km
500 to 1000 ft
800 to 1500m
200 to 500 ft
< 800m
< 200 ft
Symbols :   Thunderstorms  Fog  Heavy snow  Heavy precipitations  Wind > 20 kt
SIGMETs :     Misc.  Thunderstorms  Icing  Turbulence  Mountain Waves  Volcanic Ashes







- Airport Elevation : 327 ft
- IATA code : BHX
- Download approach charts


EGBB - Birmingham

CURRENT METAR :
  • 201320Z 20008KT 170V250 9999 SCT027 11/06 Q1017

EXPIRED METARs :
  • 201250Z 21010KT 180V240 9999 FEW024 SCT029 11/06 Q1017
  • 201220Z 21008KT 190V250 9999 SCT022 BKN033 11/06 Q1017
  • 201150Z 21009KT 170V240 9999 BKN019 BKN030 11/07 Q1017
  • 201120Z 21008KT 180V250 9999 BKN019 10/06 Q1017
  • 201050Z 22008KT 180V260 9999 BKN016 10/07 Q1017

TAF TAF EGBB
Valid from the 20 at 12:00 until the 21 at 12:00 UTC


201103Z 2012/2112 20010KT 9999 SCT020
BECMG 2016/2019 BKN010
TEMPO 2017/2104 8000 -RA BKN007
PROB40
TEMPO 2104/2110 SCT010
BECMG 2110/2112 BKN015
ATIS : +44 121 780 0910
No reported NOTAMs for that airfield.
1 SIGMET reported for the London FIR (EGTT) :
 
Severe mountain waves
EGTT SIGMET 03 VALID 201330/201730 EGRR
EGTT LONDON FIR SEV MTW FCST WI N5500 W00116 - N5430 W00110 - N5245 W00200 - N5245 W00400 - N5500 W00330 - N5500 W00116 FL030/250 STNR WKN=



MET'MAP, your aeronautical weather chart ! - Copyright ORBIFLY December 2007 - Disclaimer

ORBIFLY MET'MAP TEAM :

Programming & Development : Alexandra Zaïnal
Concept & Development : Baudouin d'Aumeries
Co-Development & Prog : Marc-Olivier Méhu
Technical & hardware support : Manuel Goepfert

Contact : metmap@orbifly.com




SOURCES & CREDITS :

   NOAA